sensor_id;sensor_type;location;lat;lon;timestamp;temperature;humidity
52769;DHT22;40471;44.534;18.644;2023-07-28T00:02:23;16.50;99.90
52769;DHT22;40471;44.534;18.644;2023-07-28T00:04:48;16.40;99.90
52769;DHT22;40471;44.534;18.644;2023-07-28T00:07:14;16.30;99.90
52769;DHT22;40471;44.534;18.644;2023-07-28T00:09:39;16.30;99.90
52769;DHT22;40471;44.534;18.644;2023-07-28T00:12:05;16.30;99.90
52769;DHT22;40471;44.534;18.644;2023-07-28T00:14:31;16.30;99.90
52769;DHT22;40471;44.534;18.644;2023-07-28T00:16:57;16.20;99.90
52769;DHT22;40471;44.534;18.644;2023-07-28T00:19:23;16.10;99.90
52769;DHT22;40471;44.534;18.644;2023-07-28T00:21:48;16.10;99.90
52769;DHT22;40471;44.534;18.644;2023-07-28T00:24:14;16.10;99.90
52769;DHT22;40471;44.534;18.644;2023-07-28T00:26:40;16.00;99.90
52769;DHT22;40471;44.534;18.644;2023-07-28T00:29:05;16.00;99.90
52769;DHT22;40471;44.534;18.644;2023-07-28T00:31:32;16.00;99.90
52769;DHT22;40471;44.534;18.644;2023-07-28T00:33:57;16.10;99.90
52769;DHT22;40471;44.534;18.644;2023-07-28T00:36:23;16.10;99.90
52769;DHT22;40471;44.534;18.644;2023-07-28T00:38:48;16.10;99.90
52769;DHT22;40471;44.534;18.644;2023-07-28T00:41:14;16.00;99.90
52769;DHT22;40471;44.534;18.644;2023-07-28T00:43:40;16.00;99.90
52769;DHT22;40471;44.534;18.644;2023-07-28T00:46:05;16.00;99.90
52769;DHT22;40471;44.534;18.644;2023-07-28T00:48:31;15.90;99.90
52769;DHT22;40471;44.534;18.644;2023-07-28T00:50:57;15.80;99.90
52769;DHT22;40471;44.534;18.644;2023-07-28T00:53:23;15.80;99.90
52769;DHT22;40471;44.534;18.644;2023-07-28T00:55:49;15.70;99.90
52769;DHT22;40471;44.534;18.644;2023-07-28T00:58:15;15.70;99.90
52769;DHT22;40471;44.534;18.644;2023-07-28T01:00:40;15.80;99.90
52769;DHT22;40471;44.534;18.644;2023-07-28T01:03:06;15.80;99.90
52769;DHT22;40471;44.534;18.644;2023-07-28T01:05:33;15.70;99.90
52769;DHT22;40471;44.534;18.644;2023-07-28T01:08:10;15.70;99.90
52769;DHT22;40471;44.534;18.644;2023-07-28T01:10:36;15.70;99.90
52769;DHT22;40471;44.534;18.644;2023-07-28T01:13:04;15.60;99.90
52769;DHT22;40471;44.534;18.644;2023-07-28T01:15:29;15.60;99.90
52769;DHT22;40471;44.534;18.644;2023-07-28T01:17:55;15.70;99.90
52769;DHT22;40471;44.534;18.644;2023-07-28T01:20:21;15.70;99.90
52769;DHT22;40471;44.534;18.644;2023-07-28T01:28:12;15.70;99.90
52769;DHT22;40471;44.534;18.644;2023-07-28T01:30:38;15.70;99.90
52769;DHT22;40471;44.534;18.644;2023-07-28T01:33:07;15.70;99.90
52769;DHT22;40471;44.534;18.644;2023-07-28T01:35:34;15.70;99.90
52769;DHT22;40471;44.534;18.644;2023-07-28T01:37:59;15.70;99.90
52769;DHT22;40471;44.534;18.644;2023-07-28T01:40:25;15.60;99.90
52769;DHT22;40471;44.534;18.644;2023-07-28T01:42:50;15.50;99.90
52769;DHT22;40471;44.534;18.644;2023-07-28T01:45:16;15.60;99.90
52769;DHT22;40471;44.534;18.644;2023-07-28T01:47:42;15.50;99.90
52769;DHT22;40471;44.534;18.644;2023-07-28T01:50:07;15.50;99.90
52769;DHT22;40471;44.534;18.644;2023-07-28T01:52:33;15.40;99.90
52769;DHT22;40471;44.534;18.644;2023-07-28T01:54:58;15.40;99.90
52769;DHT22;40471;44.534;18.644;2023-07-28T01:57:24;15.40;99.90
52769;DHT22;40471;44.534;18.644;2023-07-28T01:59:56;15.30;99.90
52769;DHT22;40471;44.534;18.644;2023-07-28T02:02:21;15.30;99.90
52769;DHT22;40471;44.534;18.644;2023-07-28T02:04:47;15.30;99.90
52769;DHT22;40471;44.534;18.644;2023-07-28T02:07:12;15.30;99.90
52769;DHT22;40471;44.534;18.644;2023-07-28T02:09:38;15.30;99.90
52769;DHT22;40471;44.534;18.644;2023-07-28T02:12:04;15.20;99.90
52769;DHT22;40471;44.534;18.644;2023-07-28T02:14:29;15.30;99.90
52769;DHT22;40471;44.534;18.644;2023-07-28T02:16:55;15.30;99.90
52769;DHT22;40471;44.534;18.644;2023-07-28T02:19:21;15.20;99.90
52769;DHT22;40471;44.534;18.644;2023-07-28T02:21:46;15.30;99.90
52769;DHT22;40471;44.534;18.644;2023-07-28T02:24:12;15.30;99.90
52769;DHT22;40471;44.534;18.644;2023-07-28T02:26:37;15.20;99.90
52769;DHT22;40471;44.534;18.644;2023-07-28T02:29:03;15.20;99.90
52769;DHT22;40471;44.534;18.644;2023-07-28T02:31:28;15.20;99.90
52769;DHT22;40471;44.534;18.644;2023-07-28T02:33:54;15.20;99.90
52769;DHT22;40471;44.534;18.644;2023-07-28T02:36:20;15.20;99.90
52769;DHT22;40471;44.534;18.644;2023-07-28T02:38:46;15.10;99.90
52769;DHT22;40471;44.534;18.644;2023-07-28T02:41:11;15.10;99.90
52769;DHT22;40471;44.534;18.644;2023-07-28T02:43:37;15.10;99.90
52769;DHT22;40471;44.534;18.644;2023-07-28T02:46:02;15.10;99.90
52769;DHT22;40471;44.534;18.644;2023-07-28T02:48:28;15.20;99.90
52769;DHT22;40471;44.534;18.644;2023-07-28T02:50:54;15.10;99.90
52769;DHT22;40471;44.534;18.644;2023-07-28T02:53:19;15.00;99.90
52769;DHT22;40471;44.534;18.644;2023-07-28T02:55:45;15.00;99.90
52769;DHT22;40471;44.534;18.644;2023-07-28T02:58:11;14.90;99.90
52769;DHT22;40471;44.534;18.644;2023-07-28T03:00:37;14.90;99.90
52769;DHT22;40471;44.534;18.644;2023-07-28T03:03:04;14.90;99.90
52769;DHT22;40471;44.534;18.644;2023-07-28T03:05:30;14.90;99.90
52769;DHT22;40471;44.534;18.644;2023-07-28T03:07:56;14.90;99.90
52769;DHT22;40471;44.534;18.644;2023-07-28T03:10:22;14.90;99.90
52769;DHT22;40471;44.534;18.644;2023-07-28T03:12:47;14.90;99.90
52769;DHT22;40471;44.534;18.644;2023-07-28T03:15:13;14.90;99.90
52769;DHT22;40471;44.534;18.644;2023-07-28T03:17:38;15.00;99.90
52769;DHT22;40471;44.534;18.644;2023-07-28T03:20:04;15.00;99.90
52769;DHT22;40471;44.534;18.644;2023-07-28T03:22:30;15.00;99.90
52769;DHT22;40471;44.534;18.644;2023-07-28T03:24:56;15.00;99.90
52769;DHT22;40471;44.534;18.644;2023-07-28T03:27:21;15.00;99.90
52769;DHT22;40471;44.534;18.644;2023-07-28T03:29:47;15.00;99.90
52769;DHT22;40471;44.534;18.644;2023-07-28T03:32:13;15.00;99.90
52769;DHT22;40471;44.534;18.644;2023-07-28T03:34:38;15.00;99.90
52769;DHT22;40471;44.534;18.644;2023-07-28T03:37:04;15.00;99.90
52769;DHT22;40471;44.534;18.644;2023-07-28T03:39:30;15.00;99.90
52769;DHT22;40471;44.534;18.644;2023-07-28T03:41:56;15.00;99.90
52769;DHT22;40471;44.534;18.644;2023-07-28T03:44:22;15.00;99.90
52769;DHT22;40471;44.534;18.644;2023-07-28T03:46:48;15.00;99.90
52769;DHT22;40471;44.534;18.644;2023-07-28T03:49:13;15.00;99.90
52769;DHT22;40471;44.534;18.644;2023-07-28T03:51:39;15.10;99.90
52769;DHT22;40471;44.534;18.644;2023-07-28T03:54:04;15.20;99.90
52769;DHT22;40471;44.534;18.644;2023-07-28T03:56:30;15.20;99.90
52769;DHT22;40471;44.534;18.644;2023-07-28T03:58:55;15.20;99.90
52769;DHT22;40471;44.534;18.644;2023-07-28T04:01:21;15.20;99.90
52769;DHT22;40471;44.534;18.644;2023-07-28T04:03:47;15.20;99.90
52769;DHT22;40471;44.534;18.644;2023-07-28T04:06:13;15.10;99.90
52769;DHT22;40471;44.534;18.644;2023-07-28T04:08:39;15.20;99.90
52769;DHT22;40471;44.534;18.644;2023-07-28T04:11:05;15.10;99.90
52769;DHT22;40471;44.534;18.644;2023-07-28T04:13:30;15.10;99.90
52769;DHT22;40471;44.534;18.644;2023-07-28T04:15:56;15.20;99.90
52769;DHT22;40471;44.534;18.644;2023-07-28T04:18:21;15.20;99.90
52769;DHT22;40471;44.534;18.644;2023-07-28T04:20:48;15.20;99.90
52769;DHT22;40471;44.534;18.644;2023-07-28T04:23:14;15.30;99.90
52769;DHT22;40471;44.534;18.644;2023-07-28T04:25:39;15.30;99.90
52769;DHT22;40471;44.534;18.644;2023-07-28T04:28:05;15.30;99.90
52769;DHT22;40471;44.534;18.644;2023-07-28T04:30:32;15.50;99.90
52769;DHT22;40471;44.534;18.644;2023-07-28T04:32:57;15.60;99.90
52769;DHT22;40471;44.534;18.644;2023-07-28T04:35:23;15.60;99.90
52769;DHT22;40471;44.534;18.644;2023-07-28T04:37:49;15.70;99.90
52769;DHT22;40471;44.534;18.644;2023-07-28T04:40:15;15.80;99.90
52769;DHT22;40471;44.534;18.644;2023-07-28T04:42:40;15.80;99.90
52769;DHT22;40471;44.534;18.644;2023-07-28T04:45:06;15.90;99.90
52769;DHT22;40471;44.534;18.644;2023-07-28T04:47:32;16.00;99.90
52769;DHT22;40471;44.534;18.644;2023-07-28T04:49:57;16.10;99.90
52769;DHT22;40471;44.534;18.644;2023-07-28T04:52:23;16.30;99.90
52769;DHT22;40471;44.534;18.644;2023-07-28T04:54:49;16.40;99.90
52769;DHT22;40471;44.534;18.644;2023-07-28T04:57:14;16.60;99.90
52769;DHT22;40471;44.534;18.644;2023-07-28T04:59:40;17.20;99.90
52769;DHT22;40471;44.534;18.644;2023-07-28T05:02:06;20.30;99.90
52769;DHT22;40471;44.534;18.644;2023-07-28T05:04:31;23.40;99.90
52769;DHT22;40471;44.534;18.644;2023-07-28T05:06:57;25.50;99.90
52769;DHT22;40471;44.534;18.644;2023-07-28T05:09:23;27.70;96.70
52769;DHT22;40471;44.534;18.644;2023-07-28T05:11:48;29.40;91.20
52769;DHT22;40471;44.534;18.644;2023-07-28T05:14:14;30.80;80.20
52769;DHT22;40471;44.534;18.644;2023-07-28T05:16:39;31.90;76.50
52769;DHT22;40471;44.534;18.644;2023-07-28T05:19:05;32.70;72.00
52769;DHT22;40471;44.534;18.644;2023-07-28T05:21:31;32.70;69.50
52769;DHT22;40471;44.534;18.644;2023-07-28T05:23:57;32.60;68.30
52769;DHT22;40471;44.534;18.644;2023-07-28T05:26:22;33.30;66.00
52769;DHT22;40471;44.534;18.644;2023-07-28T05:28:48;34.10;64.00
52769;DHT22;40471;44.534;18.644;2023-07-28T05:31:14;34.50;63.30
52769;DHT22;40471;44.534;18.644;2023-07-28T05:33:40;35.40;61.60
52769;DHT22;40471;44.534;18.644;2023-07-28T05:36:06;36.10;58.80
52769;DHT22;40471;44.534;18.644;2023-07-28T05:38:32;36.50;57.50
52769;DHT22;40471;44.534;18.644;2023-07-28T05:40:58;37.20;57.00
52769;DHT22;40471;44.534;18.644;2023-07-28T05:43:23;37.60;55.70
52769;DHT22;40471;44.534;18.644;2023-07-28T05:45:49;38.00;54.40
52769;DHT22;40471;44.534;18.644;2023-07-28T05:48:14;38.00;54.60
52769;DHT22;40471;44.534;18.644;2023-07-28T05:50:40;38.40;54.70
52769;DHT22;40471;44.534;18.644;2023-07-28T05:53:06;39.00;53.40
52769;DHT22;40471;44.534;18.644;2023-07-28T05:55:31;39.10;52.80
52769;DHT22;40471;44.534;18.644;2023-07-28T05:57:57;39.30;52.40
52769;DHT22;40471;44.534;18.644;2023-07-28T06:00:22;39.70;51.30
52769;DHT22;40471;44.534;18.644;2023-07-28T06:02:48;40.20;50.90
52769;DHT22;40471;44.534;18.644;2023-07-28T06:05:13;40.10;50.50
52769;DHT22;40471;44.534;18.644;2023-07-28T06:07:39;40.20;50.00
52769;DHT22;40471;44.534;18.644;2023-07-28T06:10:05;39.90;50.30
52769;DHT22;40471;44.534;18.644;2023-07-28T06:12:30;40.20;50.80
52769;DHT22;40471;44.534;18.644;2023-07-28T06:14:56;40.50;49.50
52769;DHT22;40471;44.534;18.644;2023-07-28T06:17:22;41.00;49.10
52769;DHT22;40471;44.534;18.644;2023-07-28T06:19:47;41.20;48.50
52769;DHT22;40471;44.534;18.644;2023-07-28T06:22:13;41.00;48.10
52769;DHT22;40471;44.534;18.644;2023-07-28T06:24:38;41.20;48.30
52769;DHT22;40471;44.534;18.644;2023-07-28T06:27:04;41.40;47.80
52769;DHT22;40471;44.534;18.644;2023-07-28T06:29:33;41.50;46.80
52769;DHT22;40471;44.534;18.644;2023-07-28T06:31:59;41.70;47.70
52769;DHT22;40471;44.534;18.644;2023-07-28T06:34:24;42.00;47.10
52769;DHT22;40471;44.534;18.644;2023-07-28T06:36:50;42.20;47.40
52769;DHT22;40471;44.534;18.644;2023-07-28T06:39:15;42.50;46.40
52769;DHT22;40471;44.534;18.644;2023-07-28T06:41:41;42.80;46.70
52769;DHT22;40471;44.534;18.644;2023-07-28T06:44:06;43.40;47.20
52769;DHT22;40471;44.534;18.644;2023-07-28T06:46:33;43.60;45.70
52769;DHT22;40471;44.534;18.644;2023-07-28T06:48:59;43.50;45.30
52769;DHT22;40471;44.534;18.644;2023-07-28T06:51:24;43.60;46.40
52769;DHT22;40471;44.534;18.644;2023-07-28T06:53:51;43.90;44.40
52769;DHT22;40471;44.534;18.644;2023-07-28T06:56:16;43.90;44.20
52769;DHT22;40471;44.534;18.644;2023-07-28T06:58:42;43.90;45.00
52769;DHT22;40471;44.534;18.644;2023-07-28T07:01:08;43.80;44.80
52769;DHT22;40471;44.534;18.644;2023-07-28T07:03:36;43.80;44.70
52769;DHT22;40471;44.534;18.644;2023-07-28T07:06:02;43.90;43.70
52769;DHT22;40471;44.534;18.644;2023-07-28T07:08:27;44.00;43.80
52769;DHT22;40471;44.534;18.644;2023-07-28T07:10:53;44.10;45.10
52769;DHT22;40471;44.534;18.644;2023-07-28T07:13:18;44.50;44.00
52769;DHT22;40471;44.534;18.644;2023-07-28T07:15:44;44.50;42.20
52769;DHT22;40471;44.534;18.644;2023-07-28T07:18:10;44.40;43.60
52769;DHT22;40471;44.534;18.644;2023-07-28T07:20:36;44.40;43.90
52769;DHT22;40471;44.534;18.644;2023-07-28T07:23:03;44.80;44.70
52769;DHT22;40471;44.534;18.644;2023-07-28T07:25:29;44.20;44.20
52769;DHT22;40471;44.534;18.644;2023-07-28T07:27:54;44.40;44.50
52769;DHT22;40471;44.534;18.644;2023-07-28T07:30:21;44.60;44.60
52769;DHT22;40471;44.534;18.644;2023-07-28T07:32:46;44.80;44.40
52769;DHT22;40471;44.534;18.644;2023-07-28T07:35:12;44.60;44.80
52769;DHT22;40471;44.534;18.644;2023-07-28T07:37:38;44.70;44.20
52769;DHT22;40471;44.534;18.644;2023-07-28T07:40:04;45.00;44.20
52769;DHT22;40471;44.534;18.644;2023-07-28T07:42:39;44.90;44.50
52769;DHT22;40471;44.534;18.644;2023-07-28T07:45:07;45.10;43.80
52769;DHT22;40471;44.534;18.644;2023-07-28T07:47:32;45.20;43.60
52769;DHT22;40471;44.534;18.644;2023-07-28T07:49:58;45.30;43.60
52769;DHT22;40471;44.534;18.644;2023-07-28T07:52:23;45.20;43.10
52769;DHT22;40471;44.534;18.644;2023-07-28T07:54:49;44.70;43.40
52769;DHT22;40471;44.534;18.644;2023-07-28T07:57:15;44.80;45.00
52769;DHT22;40471;44.534;18.644;2023-07-28T07:59:41;45.00;44.70
52769;DHT22;40471;44.534;18.644;2023-07-28T08:02:06;45.00;43.30
52769;DHT22;40471;44.534;18.644;2023-07-28T08:04:32;45.00;43.80
52769;DHT22;40471;44.534;18.644;2023-07-28T08:06:57;45.00;44.40
52769;DHT22;40471;44.534;18.644;2023-07-28T08:09:23;45.10;45.00
52769;DHT22;40471;44.534;18.644;2023-07-28T08:11:49;45.00;44.40
52769;DHT22;40471;44.534;18.644;2023-07-28T08:14:15;44.70;45.10
52769;DHT22;40471;44.534;18.644;2023-07-28T08:16:40;44.10;45.10
52769;DHT22;40471;44.534;18.644;2023-07-28T08:19:06;43.80;45.60
52769;DHT22;40471;44.534;18.644;2023-07-28T08:21:31;43.90;45.60
52769;DHT22;40471;44.534;18.644;2023-07-28T08:24:02;43.70;45.30
52769;DHT22;40471;44.534;18.644;2023-07-28T08:26:29;43.80;47.00
52769;DHT22;40471;44.534;18.644;2023-07-28T08:28:54;43.20;45.80
52769;DHT22;40471;44.534;18.644;2023-07-28T08:31:20;42.80;46.50
52769;DHT22;40471;44.534;18.644;2023-07-28T08:33:46;42.20;46.00
52769;DHT22;40471;44.534;18.644;2023-07-28T08:36:12;41.90;47.60
52769;DHT22;40471;44.534;18.644;2023-07-28T08:38:37;41.90;46.40
52769;DHT22;40471;44.534;18.644;2023-07-28T08:41:04;42.00;47.80
52769;DHT22;40471;44.534;18.644;2023-07-28T08:43:30;42.40;46.10
52769;DHT22;40471;44.534;18.644;2023-07-28T08:45:56;42.00;46.00
52769;DHT22;40471;44.534;18.644;2023-07-28T08:48:23;41.60;46.80
52769;DHT22;40471;44.534;18.644;2023-07-28T08:50:49;41.80;46.80
52769;DHT22;40471;44.534;18.644;2023-07-28T08:53:14;41.70;47.00
52769;DHT22;40471;44.534;18.644;2023-07-28T08:55:40;42.10;46.90
52769;DHT22;40471;44.534;18.644;2023-07-28T08:58:19;42.00;46.30
52769;DHT22;40471;44.534;18.644;2023-07-28T09:00:45;41.50;46.10
52769;DHT22;40471;44.534;18.644;2023-07-28T09:03:14;41.40;46.40
52769;DHT22;40471;44.534;18.644;2023-07-28T09:05:40;41.60;45.60
52769;DHT22;40471;44.534;18.644;2023-07-28T09:08:06;41.90;45.30
52769;DHT22;40471;44.534;18.644;2023-07-28T09:10:42;42.00;45.10
52769;DHT22;40471;44.534;18.644;2023-07-28T09:13:08;42.10;43.80
52769;DHT22;40471;44.534;18.644;2023-07-28T09:15:35;42.10;45.80
52769;DHT22;40471;44.534;18.644;2023-07-28T09:18:00;42.20;43.00
52769;DHT22;40471;44.534;18.644;2023-07-28T09:20:32;42.30;45.60
52769;DHT22;40471;44.534;18.644;2023-07-28T09:22:58;42.40;44.00
52769;DHT22;40471;44.534;18.644;2023-07-28T09:25:24;42.20;44.30
52769;DHT22;40471;44.534;18.644;2023-07-28T09:27:52;41.50;44.40
52769;DHT22;40471;44.534;18.644;2023-07-28T09:30:17;41.60;44.50
52769;DHT22;40471;44.534;18.644;2023-07-28T09:32:46;41.70;44.90
52769;DHT22;40471;44.534;18.644;2023-07-28T09:35:13;41.50;43.70
52769;DHT22;40471;44.534;18.644;2023-07-28T09:37:40;41.30;45.60
52769;DHT22;40471;44.534;18.644;2023-07-28T09:40:07;41.50;44.20
52769;DHT22;40471;44.534;18.644;2023-07-28T09:42:37;41.60;44.90
52769;DHT22;40471;44.534;18.644;2023-07-28T09:45:02;41.60;45.10
52769;DHT22;40471;44.534;18.644;2023-07-28T09:47:30;41.70;46.30
52769;DHT22;40471;44.534;18.644;2023-07-28T09:49:58;41.70;45.90
52769;DHT22;40471;44.534;18.644;2023-07-28T09:52:25;41.70;45.20
52769;DHT22;40471;44.534;18.644;2023-07-28T09:54:52;41.50;44.50
52769;DHT22;40471;44.534;18.644;2023-07-28T09:57:20;41.30;46.20
52769;DHT22;40471;44.534;18.644;2023-07-28T09:59:46;41.50;45.60
52769;DHT22;40471;44.534;18.644;2023-07-28T10:02:12;41.70;45.70
52769;DHT22;40471;44.534;18.644;2023-07-28T10:04:38;41.40;46.10
52769;DHT22;40471;44.534;18.644;2023-07-28T10:07:04;41.20;46.80
52769;DHT22;40471;44.534;18.644;2023-07-28T10:09:30;41.20;46.30
52769;DHT22;40471;44.534;18.644;2023-07-28T10:11:59;40.90;46.80
52769;DHT22;40471;44.534;18.644;2023-07-28T10:14:35;40.00;46.70
52769;DHT22;40471;44.534;18.644;2023-07-28T10:17:03;39.70;48.90
52769;DHT22;40471;44.534;18.644;2023-07-28T10:19:29;39.60;47.10
52769;DHT22;40471;44.534;18.644;2023-07-28T10:21:59;39.70;48.30
52769;DHT22;40471;44.534;18.644;2023-07-28T10:24:49;39.90;46.60
52769;DHT22;40471;44.534;18.644;2023-07-28T10:27:10;40.10;46.90
52769;DHT22;40471;44.534;18.644;2023-07-28T10:29:39;40.10;47.40
52769;DHT22;40471;44.534;18.644;2023-07-28T10:32:04;40.20;46.50
52769;DHT22;40471;44.534;18.644;2023-07-28T10:34:30;40.10;46.40
52769;DHT22;40471;44.534;18.644;2023-07-28T10:36:56;40.40;46.30
52769;DHT22;40471;44.534;18.644;2023-07-28T10:39:22;40.60;48.80
52769;DHT22;40471;44.534;18.644;2023-07-28T10:44:26;40.80;47.00
52769;DHT22;40471;44.534;18.644;2023-07-28T10:56:02;41.20;48.40
52769;DHT22;40471;44.534;18.644;2023-07-28T10:58:28;41.50;46.90
52769;DHT22;40471;44.534;18.644;2023-07-28T11:00:54;41.50;46.50
52769;DHT22;40471;44.534;18.644;2023-07-28T11:03:20;41.20;46.60
52769;DHT22;40471;44.534;18.644;2023-07-28T11:05:45;40.90;47.10
52769;DHT22;40471;44.534;18.644;2023-07-28T11:08:13;40.90;47.90
52769;DHT22;40471;44.534;18.644;2023-07-28T11:10:39;40.90;47.50
52769;DHT22;40471;44.534;18.644;2023-07-28T11:13:05;40.70;47.40
52769;DHT22;40471;44.534;18.644;2023-07-28T11:15:31;40.90;47.10
52769;DHT22;40471;44.534;18.644;2023-07-28T11:17:57;41.10;47.70
52769;DHT22;40471;44.534;18.644;2023-07-28T11:20:24;41.00;47.50
52769;DHT22;40471;44.534;18.644;2023-07-28T11:22:54;40.60;47.30
52769;DHT22;40471;44.534;18.644;2023-07-28T11:25:20;40.70;47.60
52769;DHT22;40471;44.534;18.644;2023-07-28T11:27:46;40.80;49.10
52769;DHT22;40471;44.534;18.644;2023-07-28T11:30:12;40.90;48.20
52769;DHT22;40471;44.534;18.644;2023-07-28T11:32:38;41.00;47.20
52769;DHT22;40471;44.534;18.644;2023-07-28T11:35:08;41.20;47.40
52769;DHT22;40471;44.534;18.644;2023-07-28T11:37:40;40.80;47.30
52769;DHT22;40471;44.534;18.644;2023-07-28T11:40:07;40.70;48.00
52769;DHT22;40471;44.534;18.644;2023-07-28T11:42:46;40.70;48.10
52769;DHT22;40471;44.534;18.644;2023-07-28T11:45:13;40.00;47.90
52769;DHT22;40471;44.534;18.644;2023-07-28T11:47:38;39.80;48.50
52769;DHT22;40471;44.534;18.644;2023-07-28T11:50:04;39.80;48.20
52769;DHT22;40471;44.534;18.644;2023-07-28T11:52:33;39.80;48.70
52769;DHT22;40471;44.534;18.644;2023-07-28T11:55:01;39.90;47.60
52769;DHT22;40471;44.534;18.644;2023-07-28T11:57:28;39.90;47.90
52769;DHT22;40471;44.534;18.644;2023-07-28T11:59:56;39.90;48.10
52769;DHT22;40471;44.534;18.644;2023-07-28T12:02:26;39.70;49.80
52769;DHT22;40471;44.534;18.644;2023-07-28T12:04:52;39.70;48.10
52769;DHT22;40471;44.534;18.644;2023-07-28T12:07:20;39.40;49.60
52769;DHT22;40471;44.534;18.644;2023-07-28T12:09:52;39.10;48.90
52769;DHT22;40471;44.534;18.644;2023-07-28T12:12:19;39.10;48.90
52769;DHT22;40471;44.534;18.644;2023-07-28T12:14:45;39.00;49.50
52769;DHT22;40471;44.534;18.644;2023-07-28T12:17:14;39.40;49.50
52769;DHT22;40471;44.534;18.644;2023-07-28T12:19:40;39.40;50.40
52769;DHT22;40471;44.534;18.644;2023-07-28T12:22:06;39.30;49.00
52769;DHT22;40471;44.534;18.644;2023-07-28T12:24:33;39.20;50.10
52769;DHT22;40471;44.534;18.644;2023-07-28T12:26:59;39.20;49.90
52769;DHT22;40471;44.534;18.644;2023-07-28T12:29:24;38.90;51.60
52769;DHT22;40471;44.534;18.644;2023-07-28T12:31:50;38.90;50.40
52769;DHT22;40471;44.534;18.644;2023-07-28T12:34:15;39.10;51.40
52769;DHT22;40471;44.534;18.644;2023-07-28T12:36:41;39.20;49.40
52769;DHT22;40471;44.534;18.644;2023-07-28T12:39:07;39.40;50.00
52769;DHT22;40471;44.534;18.644;2023-07-28T12:41:33;39.60;49.00
52769;DHT22;40471;44.534;18.644;2023-07-28T12:43:58;39.50;48.70
52769;DHT22;40471;44.534;18.644;2023-07-28T12:46:24;39.20;49.10
52769;DHT22;40471;44.534;18.644;2023-07-28T12:48:50;39.30;49.50
52769;DHT22;40471;44.534;18.644;2023-07-28T12:51:15;39.20;49.10
52769;DHT22;40471;44.534;18.644;2023-07-28T12:53:41;39.20;49.00
52769;DHT22;40471;44.534;18.644;2023-07-28T12:56:06;39.20;49.50
52769;DHT22;40471;44.534;18.644;2023-07-28T12:58:32;39.10;49.10
52769;DHT22;40471;44.534;18.644;2023-07-28T13:00:58;39.00;48.70
52769;DHT22;40471;44.534;18.644;2023-07-28T13:03:26;39.20;48.60
52769;DHT22;40471;44.534;18.644;2023-07-28T13:05:52;39.30;48.80
52769;DHT22;40471;44.534;18.644;2023-07-28T13:08:18;39.30;48.70
52769;DHT22;40471;44.534;18.644;2023-07-28T13:10:44;39.20;48.10
52769;DHT22;40471;44.534;18.644;2023-07-28T13:13:09;39.20;50.00
52769;DHT22;40471;44.534;18.644;2023-07-28T13:15:35;39.00;49.00
52769;DHT22;40471;44.534;18.644;2023-07-28T13:18:00;39.10;48.50
52769;DHT22;40471;44.534;18.644;2023-07-28T13:20:26;38.90;48.60
52769;DHT22;40471;44.534;18.644;2023-07-28T13:22:51;38.50;49.00
52769;DHT22;40471;44.534;18.644;2023-07-28T13:25:17;38.50;49.50
52769;DHT22;40471;44.534;18.644;2023-07-28T13:27:43;38.10;49.30
52769;DHT22;40471;44.534;18.644;2023-07-28T13:30:08;37.80;50.00
52769;DHT22;40471;44.534;18.644;2023-07-28T13:32:34;37.70;50.90
52769;DHT22;40471;44.534;18.644;2023-07-28T13:35:00;37.70;51.10
52769;DHT22;40471;44.534;18.644;2023-07-28T13:37:25;37.30;50.50
52769;DHT22;40471;44.534;18.644;2023-07-28T13:39:51;37.00;51.10
52769;DHT22;40471;44.534;18.644;2023-07-28T13:42:17;37.00;52.40
52769;DHT22;40471;44.534;18.644;2023-07-28T13:44:43;36.80;51.00
52769;DHT22;40471;44.534;18.644;2023-07-28T13:47:09;36.40;51.70
52769;DHT22;40471;44.534;18.644;2023-07-28T13:49:34;36.10;53.20
52769;DHT22;40471;44.534;18.644;2023-07-28T13:52:02;36.10;52.40
52769;DHT22;40471;44.534;18.644;2023-07-28T13:54:28;36.00;52.80
52769;DHT22;40471;44.534;18.644;2023-07-28T13:56:53;36.00;53.50
52769;DHT22;40471;44.534;18.644;2023-07-28T13:59:19;36.00;53.40
52769;DHT22;40471;44.534;18.644;2023-07-28T14:01:45;36.00;52.50
52769;DHT22;40471;44.534;18.644;2023-07-28T14:04:10;35.70;53.50
52769;DHT22;40471;44.534;18.644;2023-07-28T14:06:36;35.50;53.00
52769;DHT22;40471;44.534;18.644;2023-07-28T14:09:02;35.50;53.70
52769;DHT22;40471;44.534;18.644;2023-07-28T14:11:27;35.40;53.80
52769;DHT22;40471;44.534;18.644;2023-07-28T14:13:53;35.40;54.50
52769;DHT22;40471;44.534;18.644;2023-07-28T14:16:19;35.30;54.30
52769;DHT22;40471;44.534;18.644;2023-07-28T14:18:44;35.30;55.20
52769;DHT22;40471;44.534;18.644;2023-07-28T14:21:13;35.20;53.70
52769;DHT22;40471;44.534;18.644;2023-07-28T14:23:38;35.20;54.30
52769;DHT22;40471;44.534;18.644;2023-07-28T14:26:04;35.20;53.80
52769;DHT22;40471;44.534;18.644;2023-07-28T14:28:30;35.10;53.50
52769;DHT22;40471;44.534;18.644;2023-07-28T14:30:55;35.10;53.80
52769;DHT22;40471;44.534;18.644;2023-07-28T14:33:21;35.00;53.20
52769;DHT22;40471;44.534;18.644;2023-07-28T14:35:47;34.90;53.60
52769;DHT22;40471;44.534;18.644;2023-07-28T14:38:13;34.80;54.60
52769;DHT22;40471;44.534;18.644;2023-07-28T14:40:39;34.70;54.50
52769;DHT22;40471;44.534;18.644;2023-07-28T14:43:05;34.70;54.60
52769;DHT22;40471;44.534;18.644;2023-07-28T14:45:31;34.70;55.90
52769;DHT22;40471;44.534;18.644;2023-07-28T14:47:57;34.60;55.50
52769;DHT22;40471;44.534;18.644;2023-07-28T14:50:22;34.70;54.90
52769;DHT22;40471;44.534;18.644;2023-07-28T14:52:48;34.60;54.40
52769;DHT22;40471;44.534;18.644;2023-07-28T14:55:14;34.60;55.80
52769;DHT22;40471;44.534;18.644;2023-07-28T14:57:39;34.60;54.50
52769;DHT22;40471;44.534;18.644;2023-07-28T15:00:05;34.50;55.00
52769;DHT22;40471;44.534;18.644;2023-07-28T15:02:32;34.50;55.40
52769;DHT22;40471;44.534;18.644;2023-07-28T15:04:58;34.40;55.10
52769;DHT22;40471;44.534;18.644;2023-07-28T15:07:24;34.30;55.50
52769;DHT22;40471;44.534;18.644;2023-07-28T15:09:49;34.20;56.00
52769;DHT22;40471;44.534;18.644;2023-07-28T15:12:15;34.20;56.90
52769;DHT22;40471;44.534;18.644;2023-07-28T15:14:41;34.20;56.50
52769;DHT22;40471;44.534;18.644;2023-07-28T15:17:06;34.00;56.40
52769;DHT22;40471;44.534;18.644;2023-07-28T15:19:32;34.10;56.20
52769;DHT22;40471;44.534;18.644;2023-07-28T15:21:57;34.20;56.00
52769;DHT22;40471;44.534;18.644;2023-07-28T15:24:23;34.30;56.60
52769;DHT22;40471;44.534;18.644;2023-07-28T15:26:49;34.20;55.50